Time;durP1;ratioP1;P1;durP2;ratioP2;P2;SDS_P1;SDS_P2;PMS_P1;PMS_P2;Temp;Humidity;BMP_temperature;BMP_pressure;BME280_temperature;BME280_humidity;BME280_pressure;Samples;Min_cycle;Max_cycle;Signal;HPM_P1;HPM_P2
2021/12/17 05:59:38;;;;;;;97.65;40.40;;;10.60;99.90;;;9.02;100.00;102844.69;5011958;28;20053;-84
2021/12/17 06:02:11;;;;;;;;;;;10.50;99.90;;;8.99;100.00;102843.09;4969671;28;20051;-86
2021/12/17 06:04:42;;;;;;;93.28;39.13;;;10.50;99.90;;;9.06;100.00;102831.75;5002489;28;19977;-84
2021/12/17 06:07:10;;;;;;;88.05;38.70;;;10.50;99.90;;;9.05;100.00;102841.75;4969581;28;20054;-84
2021/12/17 06:09:40;;;;;;;88.60;39.60;;;10.50;99.90;;;9.07;100.00;102828.06;4969705;28;20066;-84
2021/12/17 06:12:13;;;;;;;95.32;38.53;;;10.50;99.90;;;9.07;100.00;102828.06;4969594;28;20530;-84
2021/12/17 06:14:42;;;;;;;92.10;40.00;;;10.50;99.90;;;9.08;100.00;102827.97;4969667;28;20054;-84
2021/12/17 06:17:09;;;;;;;84.72;36.45;;;10.50;99.90;;;9.05;100.00;102821.88;4968446;28;20117;-84
2021/12/17 06:19:45;;;;;;;77.85;34.60;;;10.50;99.90;;;9.08;100.00;102824.34;4970854;28;20507;-85
2021/12/17 06:22:14;;;;;;;86.65;35.95;;;10.50;99.90;;;9.05;100.00;102827.31;4985255;28;20047;-84
2021/12/17 06:24:45;;;;;;;83.47;34.10;;;10.50;99.90;;;9.06;100.00;102827.19;4969575;28;20043;-84
2021/12/17 06:27:13;;;;;;;92.72;37.83;;;10.50;99.90;;;9.07;100.00;102817.19;4969313;28;20138;-83
2021/12/17 06:29:43;;;;;;;75.53;32.33;;;10.50;99.90;;;9.08;100.00;102819.81;4985012;28;20133;-84
2021/12/17 06:32:15;;;;;;;73.30;32.28;;;10.50;99.90;;;9.07;100.00;102817.19;4974568;28;20050;-84
2021/12/17 06:34:42;;;;;;;69.65;30.38;;;10.50;99.90;;;9.03;100.00;102816.56;4988015;28;20586;-82
2021/12/17 06:37:09;;;;;;;70.65;31.23;;;10.50;99.90;;;9.05;100.00;102821.88;4977628;28;20055;-83
2021/12/17 06:39:39;;;;;;;68.15;30.17;;;10.50;99.90;;;9.05;100.00;102824.59;4997702;28;20055;-83
2021/12/17 06:42:07;;;;;;;66.88;31.13;;;10.60;99.90;;;9.05;100.00;102830.03;4989820;28;20042;-84
2021/12/17 06:44:34;;;;;;;67.13;32.13;;;10.60;99.90;;;9.08;100.00;102819.81;4988756;28;20054;-83
2021/12/17 06:47:08;;;;;;;75.65;32.67;;;10.60;99.90;;;9.05;100.00;102816.47;4989822;28;20050;-83
2021/12/17 06:49:50;;;;;;;65.47;30.73;;;10.60;99.90;;;9.09;100.00;102809.81;4988448;28;20049;-83
2021/12/17 06:56:44;;;;;;;60.67;29.05;;;10.60;99.90;;;9.06;100.00;102810.88;4903368;28;20057;-83
2021/12/17 06:59:40;;;;;;;57.83;26.90;;;10.60;99.90;;;9.00;100.00;102814.06;4986295;28;20050;-83
2021/12/17 07:06:02;;;;;;;60.47;26.95;;;10.60;99.90;;;9.02;100.00;102811.25;4952981;28;20063;-83
2021/12/17 07:17:07;;;;;;;49.00;23.92;;;10.60;99.90;;;9.03;100.00;102818.44;4965191;28;20721;-82
2021/12/17 07:17:37;;;;;;;48.47;22.23;;;10.50;99.90;;;9.00;100.00;102820.41;4933793;28;20141;-83
2021/12/17 07:23:10;;;;;;;44.80;21.33;;;10.60;99.90;;;8.96;100.00;102826.16;4967761;28;20047;-83
2021/12/17 07:28:53;;;;;;;47.72;20.88;;;10.50;99.90;;;8.98;100.00;102829.63;4978504;28;20042;-82
2021/12/17 07:34:12;;;;;;;43.80;20.42;;;10.50;99.90;;;9.00;100.00;102828.53;4987598;28;20058;-83
2021/12/17 07:39:54;;;;;;;55.95;22.77;;;10.50;99.90;;;8.93;100.00;102827.28;4974308;28;20042;-82
2021/12/17 07:42:25;;;;;;;41.40;20.17;;;10.50;99.90;;;8.94;100.00;102828.13;4987321;28;20133;-83
2021/12/17 07:45:10;;;;;;;53.15;22.40;;;10.50;99.90;;;8.95;100.00;102829.88;4987882;28;20065;-83
2021/12/17 07:47:45;;;;;;;41.67;21.15;;;10.50;99.90;;;8.94;100.00;102839.84;4999813;28;20046;-83
2021/12/17 07:50:22;;;;;;;45.67;21.45;;;10.50;99.90;;;8.96;100.00;102839.75;4989209;28;20565;-83
2021/12/17 07:53:04;;;;;;;48.45;21.60;;;10.50;99.90;;;8.92;100.00;102841.81;4987259;28;20054;-83
2021/12/17 07:55:39;;;;;;;45.90;20.05;;;10.50;99.90;;;8.93;100.00;102854.44;4987544;28;20060;-83
2021/12/17 07:58:10;;;;;;;;;;;10.50;99.90;;;8.96;100.00;102847.88;4985821;28;20050;-83
2021/12/17 08:00:40;;;;;;;42.42;20.10;;;10.50;99.90;;;8.95;100.00;102838.88;4987332;28;20321;-84
2021/12/17 08:03:08;;;;;;;41.65;19.35;;;10.50;99.90;;;8.93;100.00;102849.00;4987245;28;20054;-83
2021/12/17 08:05:56;;;;;;;38.75;19.85;;;10.50;99.90;;;8.97;100.00;102864.06;4988723;28;20147;-82
2021/12/17 08:08:24;;;;;;;42.55;19.50;;;10.50;99.90;;;8.97;100.00;102883.09;4985539;28;20096;-82
2021/12/17 08:11:15;;;;;;;37.35;17.73;;;10.50;99.90;;;9.00;100.00;102888.28;4988200;28;20633;-81
2021/12/17 08:13:44;;;;;;;48.22;22.00;;;10.50;99.90;;;9.00;100.00;102882.88;4987409;28;20065;-81
2021/12/17 08:16:26;;;;;;;49.85;22.65;;;10.50;99.90;;;8.96;100.00;102878.63;4987518;28;20077;-81
2021/12/17 08:23:06;;;;;;;52.63;24.67;;;10.50;99.90;;;8.94;100.00;102888.72;4985306;28;20644;-82
2021/12/17 08:27:27;;;;;;;56.45;25.63;;;10.60;99.90;;;8.88;100.00;102897.34;4986475;28;20050;-82
2021/12/17 08:30:18;;;;;;;51.17;24.33;;;10.60;99.90;;;8.92;100.00;102889.84;4968341;28;20570;-82
2021/12/17 08:32:52;;;;;;;61.75;24.88;;;10.50;99.90;;;8.85;100.00;102894.84;4967346;28;20043;-82
2021/12/17 08:35:20;;;;;;;55.40;24.15;;;10.60;99.90;;;8.85;100.00;102894.00;4967667;28;20142;-82
2021/12/17 08:37:52;;;;;;;49.33;21.50;;;10.60;99.90;;;8.86;100.00;102891.16;4970362;28;20051;-82
2021/12/17 08:40:21;;;;;;;51.50;20.95;;;10.60;99.90;;;8.89;100.00;102895.50;4974853;28;20046;-82
2021/12/17 08:42:52;;;;;;;35.63;18.00;;;10.60;99.90;;;8.88;100.00;102899.22;4986339;28;20062;-82
2021/12/17 08:45:20;;;;;;;32.58;15.98;;;10.60;99.90;;;8.92;100.00;102890.69;4987037;28;20108;-82
2021/12/17 08:47:48;;;;;;;27.67;14.57;;;10.50;99.90;;;8.91;100.00;102897.13;4986657;28;20294;-82
2021/12/17 08:50:21;;;;;;;32.63;16.30;;;10.60;99.90;;;8.86;100.00;102893.88;4987211;28;20054;-82
2021/12/17 08:52:50;;;;;;;30.17;14.70;;;10.50;99.90;;;8.92;100.00;102895.28;4986729;28;20055;-82
2021/12/17 08:55:19;;;;;;;25.50;13.60;;;10.50;99.90;;;8.97;100.00;102893.09;4987008;28;20379;-82
2021/12/17 08:57:46;;;;;;;28.75;15.30;;;10.50;99.90;;;8.99;100.00;102900.13;4985065;28;20061;-82
2021/12/17 09:00:15;;;;;;;32.20;14.93;;;10.50;99.90;;;8.88;100.00;102894.63;4990113;28;20039;-82
2021/12/17 09:03:03;;;;;;;30.73;15.35;;;10.50;99.90;;;8.91;100.00;102890.81;5006775;28;20097;-82
2021/12/17 09:05:44;;;;;;;27.73;15.32;;;10.50;99.90;;;8.92;100.00;102901.56;4990530;28;20043;-82
2021/12/17 09:08:16;;;;;;;33.22;16.33;;;10.50;99.90;;;8.95;100.00;102904.06;4988655;28;20469;-82
2021/12/17 09:10:52;;;;;;;36.28;15.60;;;10.50;99.90;;;8.94;100.00;102909.59;4990135;28;20054;-82
2021/12/17 09:13:21;;;;;;;36.15;17.30;;;10.40;99.90;;;8.92;100.00;102907.00;4990172;28;20519;-82
2021/12/17 09:15:49;;;;;;;34.17;16.88;;;10.50;99.90;;;8.84;100.00;102911.28;4990222;28;20050;-82
2021/12/17 09:18:29;;;;;;;31.88;15.82;;;10.50;99.90;;;8.83;100.00;102914.97;4989217;28;20120;-82
2021/12/17 09:21:05;;;;;;;35.92;16.60;;;10.50;99.90;;;8.81;100.00;102917.78;5003176;28;20054;-82
2021/12/17 09:23:54;;;;;;;34.38;16.33;;;10.50;99.90;;;8.81;100.00;102909.66;4991669;28;20054;-82
2021/12/17 09:26:22;;;;;;;33.63;16.08;;;10.50;99.90;;;8.86;100.00;102915.59;4990109;28;20593;-82
2021/12/17 09:28:50;;;;;;;29.98;14.70;;;10.50;99.90;;;8.87;100.00;102911.94;5002782;28;20053;-82
2021/12/17 09:31:18;;;;;;;29.90;15.10;;;10.50;99.90;;;8.90;100.00;102917.09;4990972;28;20042;-82
2021/12/17 09:33:49;;;;;;;30.52;14.38;;;10.50;99.90;;;8.84;100.00;102912.13;4991406;28;20042;-82
2021/12/17 09:36:17;;;;;;;29.48;14.75;;;10.50;99.90;;;8.82;100.00;102919.53;4991815;28;20463;-82
2021/12/17 09:38:49;;;;;;;30.73;15.57;;;10.50;99.90;;;8.85;100.00;102924.72;4989321;28;20509;-82
2021/12/17 09:41:18;;;;;;;26.55;13.65;;;10.50;99.90;;;8.90;100.00;102924.41;4991102;28;20130;-82
2021/12/17 09:43:47;;;;;;;32.15;14.95;;;10.50;99.90;;;8.93;100.00;102922.31;4991206;28;20127;-82
2021/12/17 09:46:15;;;;;;;35.15;15.27;;;10.60;99.90;;;8.89;100.00;102918.09;4986105;28;20141;-82
2021/12/17 09:48:45;;;;;;;30.42;14.32;;;10.60;99.90;;;8.94;100.00;102924.03;4980446;28;20043;-82
2021/12/17 09:51:13;;;;;;;34.47;15.18;;;10.60;99.90;;;8.92;100.00;102926.00;4971649;28;20466;-81
2021/12/17 09:53:41;;;;;;;34.13;16.05;;;10.60;99.90;;;8.91;100.00;102921.56;4973552;28;20722;-82
2021/12/17 09:56:08;;;;;;;33.90;15.93;;;10.60;99.90;;;8.96;100.00;102908.50;4971831;28;20097;-81
2021/12/17 09:58:37;;;;;;;32.55;15.45;;;10.60;99.90;;;9.02;100.00;102922.59;4979921;28;20050;-81
2021/12/17 10:01:05;;;;;;;31.17;15.10;;;10.70;99.90;;;9.07;100.00;102915.00;4981387;28;20105;-82
2021/12/17 10:03:32;;;;;;;28.63;15.27;;;10.70;99.90;;;9.13;100.00;102922.66;4984183;28;20042;-81
2021/12/17 10:05:59;;;;;;;30.67;15.25;;;10.70;99.90;;;9.14;100.00;102925.28;4979062;28;20038;-82
2021/12/17 10:08:27;;;;;;;31.08;15.88;;;10.60;99.90;;;9.15;100.00;102921.56;4981792;28;20104;-81
2021/12/17 10:11:01;;;;;;;30.90;15.27;;;10.70;99.90;;;9.17;100.00;102926.88;4977363;28;20041;-81
2021/12/17 10:13:31;;;;;;;29.00;14.43;;;10.70;99.90;;;9.16;100.00;102927.88;4977807;28;20101;-81
2021/12/17 10:16:02;;;;;;;29.70;14.90;;;10.70;99.90;;;9.15;100.00;102932.44;4981456;28;20125;-81
2021/12/17 10:18:36;;;;;;;32.20;14.85;;;10.70;99.90;;;9.13;100.00;102922.66;4981805;28;20042;-81
2021/12/17 10:21:07;;;;;;;34.83;15.70;;;10.70;99.90;;;9.10;100.00;102925.59;4981380;28;20043;-81
2021/12/17 10:23:35;;;;;;;30.60;15.57;;;10.70;99.90;;;9.02;100.00;102920.75;4981279;28;20090;-86
2021/12/17 10:26:04;;;;;;;26.10;14.02;;;10.70;99.90;;;9.04;100.00;102921.50;4979033;28;20057;-82
2021/12/17 10:28:32;;;;;;;29.38;14.30;;;10.70;99.90;;;9.09;100.00;102916.59;4980354;28;20050;-82
2021/12/17 10:31:01;;;;;;;27.27;14.27;;;10.70;99.90;;;9.05;100.00;102925.09;4982931;28;20125;-82
2021/12/17 10:33:29;;;;;;;24.83;12.70;;;10.70;99.90;;;9.05;100.00;102927.81;4990780;28;20070;-82
2021/12/17 10:36:02;;;;;;;29.35;13.82;;;10.70;99.90;;;9.08;100.00;102923.03;4990775;28;20121;-82
2021/12/17 10:38:29;;;;;;;32.20;14.90;;;10.70;99.90;;;9.03;100.00;102921.63;4988380;28;20057;-82
2021/12/17 10:41:03;;;;;;;26.88;13.63;;;10.70;99.90;;;9.07;100.00;102917.72;4990260;28;20108;-82
2021/12/17 10:43:36;;;;;;;24.33;13.68;;;10.70;99.90;;;9.10;100.00;102920.16;4990447;28;20050;-82
2021/12/17 10:46:11;;;;;;;25.25;13.95;;;10.70;99.90;;;9.08;100.00;102914.88;4990255;28;20081;-82
2021/12/17 10:48:52;;;;;;;26.00;13.77;;;10.70;99.90;;;9.05;100.00;102914.25;4981517;28;20129;-82
2021/12/17 10:51:31;;;;;;;24.30;14.00;;;10.70;99.90;;;9.11;100.00;102917.34;4990213;28;20383;-82
2021/12/17 10:54:04;;;;;;;27.73;14.52;;;10.70;99.90;;;9.12;100.00;102919.09;4990170;28;20065;-82
2021/12/17 10:56:34;;;;;;;25.55;14.25;;;10.70;99.90;;;9.15;100.00;102924.28;4988296;28;20586;-82
2021/12/17 10:59:06;;;;;;;27.10;14.02;;;10.60;99.90;;;9.13;100.00;102925.38;4987977;28;20066;-82
2021/12/17 11:01:45;;;;;;;26.02;14.20;;;10.60;99.90;;;9.14;100.00;102921.69;4988350;28;20046;-82
2021/12/17 11:04:19;;;;;;;28.50;14.70;;;10.70;99.90;;;9.11;100.00;102927.34;4990140;28;20058;-82
2021/12/17 11:06:52;;;;;;;25.83;13.60;;;10.70;99.90;;;9.07;100.00;102923.13;4989621;28;20406;-82
2021/12/17 11:09:35;;;;;;;26.05;13.85;;;10.70;99.90;;;9.11;100.00;102927.34;4986819;28;20077;-82
2021/12/17 11:12:07;;;;;;;30.45;13.30;;;10.70;99.90;;;9.07;100.00;102924.00;4989559;28;20053;-82
2021/12/17 11:14:35;;;;;;;23.02;13.00;;;10.70;99.90;;;9.06;100.00;102924.09;4990123;28;20073;-82
2021/12/17 11:17:04;;;;;;;24.17;12.98;;;10.70;99.90;;;9.07;100.00;102921.28;4989741;28;20034;-82
2021/12/17 11:19:33;;;;;;;22.75;12.50;;;10.70;99.90;;;9.10;100.00;102925.59;4987812;28;20460;-82
2021/12/17 11:22:01;;;;;;;21.05;11.68;;;10.70;99.90;;;9.07;100.00;102928.56;4988732;28;20072;-82
2021/12/17 11:24:30;;;;;;;21.17;11.65;;;10.70;99.90;;;9.04;100.00;102931.50;4973944;28;20049;-82
2021/12/17 11:26:58;;;;;;;20.80;12.25;;;10.70;99.90;;;8.94;100.00;102934.03;4974905;28;20109;-82
2021/12/17 11:29:26;;;;;;;19.25;10.77;;;10.80;99.90;;;8.95;100.00;102931.22;4987196;28;20045;-82
2021/12/17 11:31:54;;;;;;;19.33;11.13;;;10.70;99.90;;;9.00;100.00;102930.88;4988729;28;20134;-84
2021/12/17 11:34:23;;;;;;;20.67;11.23;;;10.70;99.90;;;8.96;100.00;102923.94;4989252;28;20043;-81
2021/12/17 11:36:50;;;;;;;16.27;9.95;;;10.70;99.90;;;8.91;100.00;102932.44;5003852;28;20101;-81
2021/12/17 11:39:24;;;;;;;17.42;9.45;;;10.70;99.90;;;8.94;100.00;102924.03;4987345;28;20582;-81
2021/12/17 11:42:13;;;;;;;20.30;10.07;;;10.70;99.90;;;8.94;100.00;102920.47;4968244;28;20109;-80
2021/12/17 11:44:50;;;;;;;20.48;10.48;;;10.70;99.90;;;8.97;100.00;102912.97;4969242;28;20058;-81
2021/12/17 11:47:18;;;;;;;16.85;9.63;;;10.70;99.90;;;9.00;100.00;102920.00;4976027;28;20073;-81
2021/12/17 11:49:52;;;;;;;15.18;9.40;;;10.70;99.90;;;9.04;100.00;102920.63;4988380;28;20144;-81
2021/12/17 11:52:43;;;;;;;17.63;10.20;;;10.70;99.90;;;8.99;100.00;102921.84;4988838;28;20081;-81
2021/12/17 11:55:34;;;;;;;15.82;10.05;;;10.70;99.90;;;8.95;100.00;102923.06;4988795;28;20046;-81
2021/12/17 11:58:06;;;;;;;18.60;10.80;;;10.70;99.90;;;8.95;100.00;102916.78;5005549;22;20053;-89
2021/12/17 12:00:50;;;;;;;17.85;10.20;;;10.70;99.90;;;8.97;100.00;102921.09;4991836;28;20045;-89
2021/12/17 12:03:20;;;;;;;15.90;9.02;;;10.70;99.90;;;8.98;100.00;102920.09;4989770;28;20100;-91
2021/12/17 12:05:51;;;;;;;17.30;9.52;;;10.70;99.90;;;9.01;100.00;102910.88;4983261;28;20458;-90
2021/12/17 12:08:36;;;;;;;14.27;7.90;;;10.70;99.90;;;9.03;100.00;102913.50;5002244;28;20052;-89
2021/12/17 12:11:11;;;;;;;12.50;7.10;;;10.70;99.90;;;8.95;100.00;102920.34;5028120;28;20111;-91
2021/12/17 12:13:41;;;;;;;11.65;7.38;;;10.70;99.90;;;8.97;100.00;102915.69;5027966;28;20041;-91
2021/12/17 12:16:11;;;;;;;9.77;6.30;;;10.70;99.90;;;9.00;100.00;102923.59;5026769;28;20176;-90
2021/12/17 12:18:49;;;;;;;10.38;6.18;;;10.70;99.90;;;8.97;100.00;102915.69;5011707;28;20053;-91
2021/12/17 12:21:19;;;;;;;10.50;6.18;;;10.70;99.90;;;8.95;100.00;102912.22;5010139;28;20045;-89
2021/12/17 12:23:54;;;;;;;11.85;7.00;;;10.70;99.90;;;8.91;100.00;102910.72;5007464;28;20064;-90
2021/12/17 12:26:39;;;;;;;9.70;5.88;;;10.70;99.90;;;8.89;100.00;102909.97;5004814;28;20050;-91
2021/12/17 12:29:16;;;;;;;9.63;6.13;;;10.70;99.90;;;8.89;100.00;102907.25;5026179;28;20041;-91
2021/12/17 12:32:13;;;;;;;11.23;5.85;;;10.70;99.90;;;8.89;100.00;102907.25;5025728;28;20053;-90
2021/12/17 12:34:43;;;;;;;11.80;6.10;;;10.70;99.90;;;8.83;100.00;102902.25;4999665;28;20656;-90
2021/12/17 12:37:28;;;;;;;10.15;6.32;;;10.70;99.90;;;8.88;100.00;102902.78;4994772;28;20049;-91
2021/12/17 12:40:21;;;;;;;9.30;5.45;;;10.70;99.90;;;8.93;100.00;102903.31;5025080;28;20505;-91
2021/12/17 12:42:56;;;;;;;9.20;5.25;;;10.70;99.90;;;8.96;100.00;102902.19;5013197;28;20322;-90
2021/12/17 12:45:31;;;;;;;12.45;5.50;;;10.60;99.90;;;8.93;100.00;102908.75;5009686;28;20528;-91
2021/12/17 12:48:01;;;;;;;9.23;5.53;;;10.60;99.90;;;8.91;100.00;102910.72;5018851;28;20490;-91
2021/12/17 12:50:34;;;;;;;9.02;4.97;;;10.60;99.90;;;8.95;100.00;102901.34;5014348;28;20152;-90
2021/12/17 12:53:11;;;;;;;7.72;4.57;;;10.60;99.90;;;8.89;100.00;102903.63;5012205;28;20050;-90
2021/12/17 12:55:43;;;;;;;8.55;4.22;;;10.60;99.90;;;8.82;100.00;102914.09;5013799;28;20494;-91
2021/12/17 12:58:14;;;;;;;10.10;4.45;;;10.60;99.90;;;8.79;100.00;102917.91;5017939;28;20070;-90
2021/12/17 13:00:47;;;;;;;8.77;5.07;;;10.60;99.90;;;8.77;100.00;102928.00;4993794;28;20046;-91
2021/12/17 13:03:17;;;;;;;8.45;4.88;;;10.70;99.90;;;8.79;100.00;102927.91;5015839;28;20045;-91
2021/12/17 13:05:49;;;;;;;7.88;4.90;;;10.70;99.90;;;8.88;100.00;102920.94;5031176;28;20041;-90
2021/12/17 13:08:19;;;;;;;;;;;10.60;99.90;;;8.87;100.00;102914.63;5031232;28;20577;-91
2021/12/17 13:10:50;;;;;;;9.07;4.78;;;10.60;99.90;;;8.89;100.00;102912.69;5029571;28;19975;-90
2021/12/17 13:13:28;;;;;;;7.80;4.85;;;10.60;99.90;;;8.88;100.00;102915.50;5026962;28;20077;-91
2021/12/17 13:16:08;;;;;;;9.30;5.32;;;10.60;99.90;;;8.89;100.00;102912.69;5011353;28;20038;-90
2021/12/17 13:21:42;;;;;;;9.27;5.10;;;10.60;99.90;;;8.92;100.00;102890.69;5013335;28;20126;-90
2021/12/17 13:24:16;;;;;;;10.15;5.70;;;10.60;99.90;;;8.93;100.00;102888.84;5031347;28;20116;-90
2021/12/17 13:26:47;;;;;;;10.50;5.20;;;10.50;99.90;;;8.95;100.00;102890.47;5013738;28;20052;-92
2021/12/17 13:29:18;;;;;;;9.65;5.43;;;10.50;99.90;;;8.96;100.00;102884.06;5029716;28;20041;-92
2021/12/17 13:31:50;;;;;;;9.90;5.05;;;10.50;99.90;;;9.00;100.00;102887.41;5012289;28;20136;-90
2021/12/17 13:34:30;;;;;;;7.78;4.50;;;10.50;99.90;;;8.92;100.00;102884.41;5013252;28;20029;-92
2021/12/17 13:37:18;;;;;;;8.50;5.15;;;10.60;99.90;;;8.96;100.00;102888.63;5013585;28;20080;-92
2021/12/17 13:39:51;;;;;;;9.55;5.45;;;10.60;99.90;;;8.92;100.00;102877.13;5014918;28;20675;-93
2021/12/17 13:42:21;;;;;;;11.30;5.93;;;10.60;99.90;;;8.88;100.00;102882.91;5025610;28;20091;-92
2021/12/17 13:44:50;;;;;;;9.63;6.05;;;10.60;99.90;;;8.87;100.00;102879.34;5013072;28;20494;-92
2021/12/17 13:47:31;;;;;;;12.88;7.20;;;10.50;99.90;;;8.80;100.00;102887.06;5030748;28;20053;-92
2021/12/17 13:50:07;;;;;;;9.70;6.32;;;10.50;99.90;;;8.71;100.00;102886.88;5032805;28;20041;-93
2021/12/17 13:52:39;;;;;;;11.73;5.95;;;10.50;99.90;;;8.63;100.00;102883.88;5015298;28;20100;-93
2021/12/17 13:55:14;;;;;;;10.82;5.82;;;10.50;99.90;;;8.64;100.00;102881.03;5015162;28;20061;-91
2021/12/17 13:57:44;;;;;;;11.00;6.15;;;10.50;99.90;;;8.55;100.00;102882.59;5014602;28;20092;-92
2021/12/17 14:00:15;;;;;;;10.48;6.47;;;10.50;99.90;;;8.59;100.00;102878.66;5012181;28;20639;-94
2021/12/17 14:02:46;;;;;;;11.02;6.00;;;10.50;99.90;;;8.62;100.00;102880.28;5023096;28;20544;-93
2021/12/17 14:05:20;;;;;;;11.77;5.97;;;10.40;99.90;;;8.61;100.00;102875.84;5013128;28;20141;-94
2021/12/17 14:07:51;;;;;;;11.70;6.22;;;10.40;99.90;;;8.56;100.00;102873.44;5017130;28;20064;-93
2021/12/17 14:10:24;;;;;;;10.02;5.80;;;10.40;99.90;;;8.54;100.00;102872.69;5009599;28;20049;-93
2021/12/17 14:12:52;;;;;;;13.43;5.65;;;10.40;99.90;;;8.52;100.00;102873.81;5012536;28;20049;-93
2021/12/17 14:15:26;;;;;;;8.80;5.72;;;10.30;99.90;;;8.52;100.00;102874.66;5011016;28;20769;-92
2021/12/17 14:17:59;;;;;;;10.70;5.80;;;10.30;99.90;;;8.46;100.00;102872.41;5027159;28;20048;-93
2021/12/17 14:20:30;;;;;;;9.23;5.43;;;10.30;99.90;;;8.43;100.00;102875.34;5009057;28;20075;-93
2021/12/17 14:23:07;;;;;;;8.30;5.28;;;10.30;99.90;;;8.42;100.00;102879.03;5010562;28;20216;-92
2021/12/17 14:25:40;;;;;;;9.07;5.72;;;10.30;99.90;;;8.37;100.00;102875.75;5010850;28;20041;-93
2021/12/17 14:28:15;;;;;;;10.98;6.45;;;10.30;99.90;;;8.41;100.00;102878.19;5006521;28;20049;-92
2021/12/17 14:30:45;;;;;;;9.15;6.30;;;10.30;99.90;;;8.45;100.00;102875.22;5026159;28;20053;-93
2021/12/17 14:33:16;;;;;;;8.70;5.70;;;10.20;99.90;;;8.44;100.00;102877.09;5012229;28;20045;-89
2021/12/17 14:35:57;;;;;;;10.82;5.93;;;10.20;99.90;;;8.43;100.00;102874.47;5012565;28;20555;-93
2021/12/17 14:38:43;;;;;;;9.68;5.68;;;10.20;99.90;;;8.33;100.00;102880.53;5014920;28;20822;-95
2021/12/17 14:41:18;;;;;;;11.05;5.93;;;10.20;99.90;;;8.39;100.00;102876.50;5026151;28;20069;-87
2021/12/17 14:43:54;;;;;;;10.55;6.82;;;10.20;99.90;;;8.42;100.00;102876.34;5044868;28;20160;-91
2021/12/17 14:46:27;;;;;;;10.27;7.72;;;10.20;99.90;;;8.46;100.00;102882.41;5011721;28;20392;-91
2021/12/17 14:49:24;;;;;;;10.07;6.93;;;10.10;99.90;;;8.46;100.00;102883.25;5038060;28;20042;-90
2021/12/17 15:00:44;;;;;;;14.07;9.77;;;10.20;99.90;;;8.33;100.00;102877.81;4991565;28;20046;-90
2021/12/17 15:03:24;;;;;;;12.57;8.95;;;10.10;99.90;;;8.31;100.00;102881.63;4993243;28;20189;-91
2021/12/17 15:05:58;;;;;;;12.95;9.20;;;10.10;99.90;;;8.34;100.00;102882.28;5010025;28;20053;-92
2021/12/17 15:08:26;;;;;;;13.63;10.35;;;10.10;99.90;;;8.35;100.00;102885.84;5013875;28;20072;-92
2021/12/17 15:10:55;;;;;;;12.63;10.23;;;10.10;99.90;;;8.36;100.00;102887.59;5028632;28;20053;-92
2021/12/17 15:13:24;;;;;;;14.23;9.57;;;10.20;99.90;;;8.35;100.00;102885.84;5010843;28;20412;-92
2021/12/17 15:15:52;;;;;;;12.85;9.55;;;10.10;99.90;;;8.39;100.00;102887.38;5011221;28;20049;-89
2021/12/17 15:18:20;;;;;;;14.63;10.65;;;10.10;99.90;;;8.36;100.00;102887.59;5011202;28;20077;-91
2021/12/17 15:20:50;;;;;;;14.80;10.43;;;10.10;99.90;;;8.43;100.00;102888.91;4996353;28;20067;-91
2021/12/17 15:23:19;;;;;;;13.98;9.82;;;10.10;99.90;;;8.45;100.00;102880.66;5010854;28;20124;-89
2021/12/17 15:25:47;;;;;;;14.32;10.15;;;10.10;99.90;;;8.43;100.00;102880.75;5013354;28;20412;-89
2021/12/17 15:28:22;;;;;;;15.77;9.40;;;10.00;99.90;;;8.42;100.00;102887.19;5009820;28;20124;-90
2021/12/17 15:30:53;;;;;;;14.20;9.95;;;10.10;99.90;;;8.37;100.00;102892.03;5011102;28;20100;-89
2021/12/17 15:33:21;;;;;;;16.23;10.85;;;10.00;99.90;;;8.39;100.00;102895.50;5013809;28;20488;-90
2021/12/17 15:35:50;;;;;;;16.92;10.98;;;10.10;99.90;;;8.40;100.00;102897.25;5023611;28;20041;-88
2021/12/17 15:38:19;;;;;;;16.40;11.25;;;10.10;99.90;;;8.45;100.00;102895.09;5009902;28;20049;-90
2021/12/17 15:40:49;;;;;;;14.60;9.70;;;10.00;99.90;;;8.43;100.00;102894.31;5010418;28;20528;-93
2021/12/17 15:43:19;;;;;;;13.52;10.00;;;10.00;99.90;;;8.44;100.00;102901.50;5010289;28;20793;-88
2021/12/17 15:45:51;;;;;;;13.45;9.30;;;10.10;99.90;;;8.47;100.00;102906.69;5027192;28;20041;-86
2021/12/17 15:48:21;;;;;;;16.65;9.27;;;10.10;99.90;;;8.47;100.00;102916.69;5025447;28;20120;-82
2021/12/17 15:50:49;;;;;;;15.63;10.18;;;10.10;99.90;;;8.49;100.00;102912.00;5010912;28;20041;-87
2021/12/17 15:53:16;;;;;;;14.55;9.70;;;10.10;99.90;;;8.51;100.00;102915.47;5028197;28;20405;-87
2021/12/17 15:55:44;;;;;;;15.60;10.18;;;10.10;99.90;;;8.50;100.00;102919.19;5004322;28;20510;-89
2021/12/17 15:58:11;;;;;;;13.13;9.50;;;10.10;99.90;;;8.45;100.00;102913.22;5008286;28;20046;-89
2021/12/17 16:00:40;;;;;;;14.73;9.80;;;10.10;99.90;;;8.43;100.00;102912.47;5010227;28;20111;-89
2021/12/17 16:03:14;;;;;;;15.98;10.00;;;10.20;99.90;;;8.44;100.00;102912.34;5010542;28;20061;-88
2021/12/17 16:05:41;;;;;;;16.27;9.52;;;10.10;99.90;;;8.43;100.00;102909.75;5027053;28;20045;-88
2021/12/17 16:08:08;;;;;;;17.80;10.07;;;10.10;99.90;;;8.42;100.00;102908.91;5007519;28;20065;-84
2021/12/17 16:20:59;;;;;;;16.70;9.70;;;10.10;99.90;;;8.34;100.00;102900.38;5016624;28;20603;-90
2021/12/17 16:21:45;;;;;;;17.63;10.75;;;10.10;99.90;;;8.37;100.00;102900.19;5011139;28;20053;-91
2021/12/17 16:24:13;;;;;;;17.17;11.80;;;10.00;99.90;;;8.42;100.00;102908.91;5010457;28;20147;-91
2021/12/17 16:26:40;;;;;;;18.58;10.65;;;10.00;99.90;;;8.39;100.00;102906.34;5006092;28;20107;-91
2021/12/17 16:29:10;;;;;;;18.67;11.93;;;10.00;99.90;;;8.43;100.00;102913.31;5009792;28;20655;-89
2021/12/17 16:31:37;;;;;;;21.25;12.88;;;10.00;99.90;;;8.41;100.00;102907.09;5010446;28;20078;-90
2021/12/17 16:34:06;;;;;;;21.33;13.07;;;10.00;99.90;;;8.41;100.00;102907.09;5027593;28;20053;-91
2021/12/17 16:36:38;;;;;;;19.17;12.32;;;10.00;99.90;;;8.38;100.00;102904.63;5018457;28;20056;-86
2021/12/17 16:39:09;;;;;;;19.52;13.65;;;10.00;99.90;;;8.34;100.00;102905.81;5014198;28;20041;-90
2021/12/17 16:41:36;;;;;;;;;;;10.00;99.90;;;8.26;100.00;102909.09;5019162;28;20065;-90
2021/12/17 16:44:08;;;;;;;21.15;14.85;;;10.00;99.90;;;8.27;100.00;102912.69;5010781;28;19931;-91
2021/12/17 16:49:31;;;;;;;30.10;17.85;;;9.90;99.90;;;8.19;100.00;102914.09;5026312;28;20050;-90
2021/12/17 16:51:59;;;;;;;27.58;17.45;;;9.90;99.90;;;8.20;100.00;102915.81;5017183;28;20052;-90
2021/12/17 16:54:27;;;;;;;24.73;17.75;;;9.90;99.90;;;8.22;100.00;102916.59;5010340;28;20140;-91
2021/12/17 16:56:54;;;;;;;28.63;18.02;;;9.90;99.90;;;8.19;100.00;102914.09;5007426;28;20046;-89
2021/12/17 16:59:22;;;;;;;30.20;20.52;;;9.90;99.90;;;8.09;100.00;102904.91;5011660;28;20069;-90
2021/12/17 17:01:49;;;;;;;31.50;20.92;;;9.90;99.90;;;8.08;100.00;102905.84;5011823;28;20049;-92
2021/12/17 17:04:17;;;;;;;28.13;19.50;;;9.80;99.90;;;8.10;100.00;102903.03;5013244;28;20049;-91
2021/12/17 17:06:46;;;;;;;30.00;20.17;;;9.80;99.90;;;8.00;100.00;102902.84;5027803;28;20049;-89
2021/12/17 17:09:14;;;;;;;33.05;21.27;;;9.70;99.90;;;8.07;100.00;102904.09;5025423;28;20061;-90
2021/12/17 17:11:44;;;;;;;32.60;21.08;;;9.70;99.90;;;7.98;100.00;102902.94;5008399;28;20140;-91
2021/12/17 17:14:12;;;;;;;31.63;20.73;;;9.70;99.90;;;7.95;100.00;102899.56;5008082;28;20075;-90
2021/12/17 17:16:41;;;;;;;30.67;20.45;;;9.70;99.90;;;7.94;100.00;102893.28;5008012;28;20058;-91
2021/12/17 17:19:09;;;;;;;32.15;21.52;;;9.70;99.90;;;7.98;100.00;102904.78;5009339;28;20048;-90